sensor_id;sensor_type;location;lat;lon;timestamp;temperature;humidity
13665;DHT22;6905;50.770;6.730;2022-07-05T00:05:48;17.60;99.90
13665;DHT22;6905;50.770;6.730;2022-07-05T00:08:30;17.60;99.90
13665;DHT22;6905;50.770;6.730;2022-07-05T00:11:12;17.50;99.90
13665;DHT22;6905;50.770;6.730;2022-07-05T00:13:53;17.50;99.90
13665;DHT22;6905;50.770;6.730;2022-07-05T00:34:26;17.20;99.90
13665;DHT22;6905;50.770;6.730;2022-07-05T00:37:12;17.10;99.90
13665;DHT22;6905;50.770;6.730;2022-07-05T00:39:56;17.10;99.90
13665;DHT22;6905;50.770;6.730;2022-07-05T00:45:52;17.00;99.90
13665;DHT22;6905;50.770;6.730;2022-07-05T00:48:47;17.00;99.90
13665;DHT22;6905;50.770;6.730;2022-07-05T01:00:24;16.90;99.90
13665;DHT22;6905;50.770;6.730;2022-07-05T01:03:18;16.80;99.90
13665;DHT22;6905;50.770;6.730;2022-07-05T01:06:28;16.80;99.90
13665;DHT22;6905;50.770;6.730;2022-07-05T01:09:32;16.70;99.90
13665;DHT22;6905;50.770;6.730;2022-07-05T01:12:24;16.70;99.90
13665;DHT22;6905;50.770;6.730;2022-07-05T01:15:06;16.70;99.90
13665;DHT22;6905;50.770;6.730;2022-07-05T01:18:06;16.60;99.90
13665;DHT22;6905;50.770;6.730;2022-07-05T01:24:17;16.60;99.90
13665;DHT22;6905;50.770;6.730;2022-07-05T01:27:06;16.60;99.90
13665;DHT22;6905;50.770;6.730;2022-07-05T01:30:12;16.50;99.90
13665;DHT22;6905;50.770;6.730;2022-07-05T01:33:20;16.50;99.90
13665;DHT22;6905;50.770;6.730;2022-07-05T01:36:08;16.50;99.90
13665;DHT22;6905;50.770;6.730;2022-07-05T01:38:53;16.50;99.90
13665;DHT22;6905;50.770;6.730;2022-07-05T01:50:42;16.30;99.90
13665;DHT22;6905;50.770;6.730;2022-07-05T01:53:35;16.20;99.90
13665;DHT22;6905;50.770;6.730;2022-07-05T01:56:30;16.20;99.90
13665;DHT22;6905;50.770;6.730;2022-07-05T01:59:23;16.20;99.90
13665;DHT22;6905;50.770;6.730;2022-07-05T02:02:07;16.10;99.90
13665;DHT22;6905;50.770;6.730;2022-07-05T02:04:49;16.10;99.90
13665;DHT22;6905;50.770;6.730;2022-07-05T02:10:38;16.10;99.90
13665;DHT22;6905;50.770;6.730;2022-07-05T02:13:32;16.00;99.90
13665;DHT22;6905;50.770;6.730;2022-07-05T02:16:34;16.00;99.90
13665;DHT22;6905;50.770;6.730;2022-07-05T02:19:16;16.00;99.90
13665;DHT22;6905;50.770;6.730;2022-07-05T02:21:59;16.00;99.90
13665;DHT22;6905;50.770;6.730;2022-07-05T02:24:43;16.00;99.90
13665;DHT22;6905;50.770;6.730;2022-07-05T02:27:31;16.00;99.90
13665;DHT22;6905;50.770;6.730;2022-07-05T02:30:21;16.00;99.90
13665;DHT22;6905;50.770;6.730;2022-07-05T02:33:15;16.00;99.90
13665;DHT22;6905;50.770;6.730;2022-07-05T02:36:20;16.00;99.90
13665;DHT22;6905;50.770;6.730;2022-07-05T02:39:06;15.90;99.90
13665;DHT22;6905;50.770;6.730;2022-07-05T02:41:54;16.00;99.90
13665;DHT22;6905;50.770;6.730;2022-07-05T02:44:46;16.00;99.90
13665;DHT22;6905;50.770;6.730;2022-07-05T02:50:37;15.90;99.90
13665;DHT22;6905;50.770;6.730;2022-07-05T02:53:11;15.90;99.90
13665;DHT22;6905;50.770;6.730;2022-07-05T02:56:02;15.90;99.90
13665;DHT22;6905;50.770;6.730;2022-07-05T02:58:47;15.90;99.90
13665;DHT22;6905;50.770;6.730;2022-07-05T03:01:38;15.90;99.90
13665;DHT22;6905;50.770;6.730;2022-07-05T03:04:23;15.90;99.90
13665;DHT22;6905;50.770;6.730;2022-07-05T03:07:16;15.80;99.90
13665;DHT22;6905;50.770;6.730;2022-07-05T03:09:59;15.80;99.90
13665;DHT22;6905;50.770;6.730;2022-07-05T03:21:53;15.70;99.90
13665;DHT22;6905;50.770;6.730;2022-07-05T03:24:43;15.70;99.90
13665;DHT22;6905;50.770;6.730;2022-07-05T03:27:25;15.70;99.90
13665;DHT22;6905;50.770;6.730;2022-07-05T03:30:11;15.70;99.90
13665;DHT22;6905;50.770;6.730;2022-07-05T03:32:54;15.60;99.90
13665;DHT22;6905;50.770;6.730;2022-07-05T03:42:01;15.60;99.90
13665;DHT22;6905;50.770;6.730;2022-07-05T03:45:04;15.50;99.90
13665;DHT22;6905;50.770;6.730;2022-07-05T03:47:48;15.50;99.90
13665;DHT22;6905;50.770;6.730;2022-07-05T03:50:35;15.50;99.90
13665;DHT22;6905;50.770;6.730;2022-07-05T03:53:21;15.40;99.90
13665;DHT22;6905;50.770;6.730;2022-07-05T03:56:09;15.40;99.90
13665;DHT22;6905;50.770;6.730;2022-07-05T04:01:57;15.50;99.90
13665;DHT22;6905;50.770;6.730;2022-07-05T04:04:55;15.50;99.90
13665;DHT22;6905;50.770;6.730;2022-07-05T04:10:45;15.50;99.90
13665;DHT22;6905;50.770;6.730;2022-07-05T04:13:27;15.50;99.90
13665;DHT22;6905;50.770;6.730;2022-07-05T04:16:21;15.50;99.90
13665;DHT22;6905;50.770;6.730;2022-07-05T04:34:31;15.50;99.90
13665;DHT22;6905;50.770;6.730;2022-07-05T04:37:25;15.60;99.90
13665;DHT22;6905;50.770;6.730;2022-07-05T04:40:34;15.60;99.90
13665;DHT22;6905;50.770;6.730;2022-07-05T04:46:44;15.60;99.90
13665;DHT22;6905;50.770;6.730;2022-07-05T04:49:40;15.60;99.90
13665;DHT22;6905;50.770;6.730;2022-07-05T04:52:25;15.70;99.90
13665;DHT22;6905;50.770;6.730;2022-07-05T04:57:55;15.70;99.90
13665;DHT22;6905;50.770;6.730;2022-07-05T04:58:23;15.80;99.90
13665;DHT22;6905;50.770;6.730;2022-07-05T05:01:24;15.90;99.90
13665;DHT22;6905;50.770;6.730;2022-07-05T05:04:20;15.90;99.90
13665;DHT22;6905;50.770;6.730;2022-07-05T05:19:33;16.10;99.90
13665;DHT22;6905;50.770;6.730;2022-07-05T05:22:36;16.20;99.90
13665;DHT22;6905;50.770;6.730;2022-07-05T05:25:32;16.30;99.90
13665;DHT22;6905;50.770;6.730;2022-07-05T05:31:38;16.50;99.90
13665;DHT22;6905;50.770;6.730;2022-07-05T05:43:52;16.80;99.90
13665;DHT22;6905;50.770;6.730;2022-07-05T05:50:01;16.90;99.90
13665;DHT22;6905;50.770;6.730;2022-07-05T05:56:34;17.10;99.90
13665;DHT22;6905;50.770;6.730;2022-07-05T06:08:44;17.50;99.90
13665;DHT22;6905;50.770;6.730;2022-07-05T06:11:27;17.60;99.90
13665;DHT22;6905;50.770;6.730;2022-07-05T06:14:10;17.80;99.90
13665;DHT22;6905;50.770;6.730;2022-07-05T06:17:24;17.80;99.90
13665;DHT22;6905;50.770;6.730;2022-07-05T06:20:11;17.90;99.90
13665;DHT22;6905;50.770;6.730;2022-07-05T06:22:54;17.90;99.90
13665;DHT22;6905;50.770;6.730;2022-07-05T06:25:55;18.00;99.90
13665;DHT22;6905;50.770;6.730;2022-07-05T06:28:45;18.10;99.90
13665;DHT22;6905;50.770;6.730;2022-07-05T06:31:55;18.30;99.90
13665;DHT22;6905;50.770;6.730;2022-07-05T06:34:51;18.30;99.90
13665;DHT22;6905;50.770;6.730;2022-07-05T06:43:49;18.40;99.90
13665;DHT22;6905;50.770;6.730;2022-07-05T06:47:07;18.50;99.90
13665;DHT22;6905;50.770;6.730;2022-07-05T06:53:14;18.70;99.90
13665;DHT22;6905;50.770;6.730;2022-07-05T06:55:59;18.80;99.90
13665;DHT22;6905;50.770;6.730;2022-07-05T06:58:56;18.90;99.90
13665;DHT22;6905;50.770;6.730;2022-07-05T07:17:23;19.50;99.90
13665;DHT22;6905;50.770;6.730;2022-07-05T07:20:25;19.60;99.90
13665;DHT22;6905;50.770;6.730;2022-07-05T09:59:44;27.00;99.90
13665;DHT22;6905;50.770;6.730;2022-07-05T10:02:39;26.90;99.90
13665;DHT22;6905;50.770;6.730;2022-07-05T10:08:25;26.90;99.90
13665;DHT22;6905;50.770;6.730;2022-07-05T10:11:14;27.10;99.90
13665;DHT22;6905;50.770;6.730;2022-07-05T10:14:04;27.30;99.90
13665;DHT22;6905;50.770;6.730;2022-07-05T10:32:17;27.90;99.20
13665;DHT22;6905;50.770;6.730;2022-07-05T11:06:27;28.50;94.50
13665;DHT22;6905;50.770;6.730;2022-07-05T15:10:42;32.50;72.50
13665;DHT22;6905;50.770;6.730;2022-07-05T15:16:12;32.40;72.00
13665;DHT22;6905;50.770;6.730;2022-07-05T15:18:43;32.40;69.40
13665;DHT22;6905;50.770;6.730;2022-07-05T15:24:28;31.80;68.00
13665;DHT22;6905;50.770;6.730;2022-07-05T15:36:47;31.80;72.10
13665;DHT22;6905;50.770;6.730;2022-07-05T15:42:55;31.90;70.30
13665;DHT22;6905;50.770;6.730;2022-07-05T15:52:15;31.50;68.80
13665;DHT22;6905;50.770;6.730;2022-07-05T15:54:47;31.50;70.60
